sensor_id;sensor_type;location;lat;lon;timestamp;pressure;altitude;pressure_sealevel;temperature;humidity
70833;BME280;71099;59.528;17.886;2024-02-04T00:01:18;98487.03;;;2.23;66.45
70833;BME280;71099;59.528;17.886;2024-02-04T00:03:43;98476.53;;;2.26;66.57
70833;BME280;71099;59.528;17.886;2024-02-04T00:06:08;98473.06;;;2.27;66.00
70833;BME280;71099;59.528;17.886;2024-02-04T00:08:34;98480.53;;;2.28;65.94
70833;BME280;71099;59.528;17.886;2024-02-04T00:10:59;98491.72;;;2.18;66.38
70833;BME280;71099;59.528;17.886;2024-02-04T00:13:25;98469.63;;;2.18;66.22
70833;BME280;71099;59.528;17.886;2024-02-04T00:15:50;98482.22;;;2.20;66.32
70833;BME280;71099;59.528;17.886;2024-02-04T00:18:19;98488.16;;;2.11;66.33
70833;BME280;71099;59.528;17.886;2024-02-04T00:20:44;98456.28;;;2.16;66.04
70833;BME280;71099;59.528;17.886;2024-02-04T00:23:10;98472.59;;;2.14;66.72
70833;BME280;71099;59.528;17.886;2024-02-04T00:25:35;98477.13;;;2.20;66.18
70833;BME280;71099;59.528;17.886;2024-02-04T00:28:01;98481.41;;;2.19;66.29
70833;BME280;71099;59.528;17.886;2024-02-04T00:30:26;98487.16;;;2.21;66.61
70833;BME280;71099;59.528;17.886;2024-02-04T00:32:52;98454.56;;;2.25;66.79
70833;BME280;71099;59.528;17.886;2024-02-04T00:35:17;98481.34;;;2.29;66.89
70833;BME280;71099;59.528;17.886;2024-02-04T00:37:42;98466.19;;;2.10;66.40
70833;BME280;71099;59.528;17.886;2024-02-04T00:40:08;98475.06;;;2.06;67.03
70833;BME280;71099;59.528;17.886;2024-02-04T00:42:34;98470.22;;;2.12;66.51
70833;BME280;71099;59.528;17.886;2024-02-04T00:45:00;98496.38;;;2.05;66.69
70833;BME280;71099;59.528;17.886;2024-02-04T00:47:25;98488.75;;;2.05;67.16
70833;BME280;71099;59.528;17.886;2024-02-04T00:49:51;98484.59;;;2.04;67.33
70833;BME280;71099;59.528;17.886;2024-02-04T00:52:16;98504.81;;;2.05;67.25
70833;BME280;71099;59.528;17.886;2024-02-04T00:54:41;98490.59;;;2.03;66.42
70833;BME280;71099;59.528;17.886;2024-02-04T00:57:07;98490.84;;;2.09;66.53
70833;BME280;71099;59.528;17.886;2024-02-04T00:59:32;98479.06;;;2.08;66.27
70833;BME280;71099;59.528;17.886;2024-02-04T01:01:58;98479.13;;;1.98;65.71
70833;BME280;71099;59.528;17.886;2024-02-04T01:04:24;98478.84;;;2.02;65.87
70833;BME280;71099;59.528;17.886;2024-02-04T01:06:50;98484.19;;;1.98;65.09
70833;BME280;71099;59.528;17.886;2024-02-04T01:09:15;98483.94;;;2.02;64.90
70833;BME280;71099;59.528;17.886;2024-02-04T01:11:40;98489.03;;;2.02;64.19
70833;BME280;71099;59.528;17.886;2024-02-04T01:14:06;98468.38;;;2.05;64.25
70833;BME280;71099;59.528;17.886;2024-02-04T01:16:31;98469.03;;;2.07;64.43
70833;BME280;71099;59.528;17.886;2024-02-04T01:18:57;98470.94;;;2.05;63.95
70833;BME280;71099;59.528;17.886;2024-02-04T01:21:22;98470.63;;;2.08;64.35
70833;BME280;71099;59.528;17.886;2024-02-04T01:23:47;98474.00;;;2.08;63.65
70833;BME280;71099;59.528;17.886;2024-02-04T01:26:13;98486.56;;;2.10;63.32
70833;BME280;71099;59.528;17.886;2024-02-04T01:28:38;98486.19;;;2.05;63.12
70833;BME280;71099;59.528;17.886;2024-02-04T01:31:04;98476.38;;;2.10;63.24
70833;BME280;71099;59.528;17.886;2024-02-04T01:33:29;98495.41;;;2.06;62.58
70833;BME280;71099;59.528;17.886;2024-02-04T01:35:54;98486.91;;;1.97;61.86
70833;BME280;71099;59.528;17.886;2024-02-04T01:38:20;98503.31;;;2.03;61.64
70833;BME280;71099;59.528;17.886;2024-02-04T01:40:45;98496.00;;;2.00;61.87
70833;BME280;71099;59.528;17.886;2024-02-04T01:43:11;98508.56;;;2.01;61.88
70833;BME280;71099;59.528;17.886;2024-02-04T01:45:37;98509.72;;;2.07;61.89
70833;BME280;71099;59.528;17.886;2024-02-04T01:48:03;98479.63;;;2.02;60.98
70833;BME280;71099;59.528;17.886;2024-02-04T01:50:29;98494.66;;;1.95;60.73
70833;BME280;71099;59.528;17.886;2024-02-04T01:52:54;98500.56;;;1.96;60.73
70833;BME280;71099;59.528;17.886;2024-02-04T01:55:20;98499.25;;;1.92;60.57
70833;BME280;71099;59.528;17.886;2024-02-04T01:57:47;98496.28;;;1.96;60.48
70833;BME280;71099;59.528;17.886;2024-02-04T02:00:13;98497.72;;;1.99;59.72
70833;BME280;71099;59.528;17.886;2024-02-04T02:02:39;98518.75;;;2.01;60.19
70833;BME280;71099;59.528;17.886;2024-02-04T02:05:06;98509.94;;;1.95;59.98
70833;BME280;71099;59.528;17.886;2024-02-04T02:07:31;98514.19;;;2.05;60.18
70833;BME280;71099;59.528;17.886;2024-02-04T02:09:57;98514.72;;;1.98;59.67
70833;BME280;71099;59.528;17.886;2024-02-04T02:12:27;98511.47;;;2.06;59.69
70833;BME280;71099;59.528;17.886;2024-02-04T02:15:02;98509.63;;;1.98;59.71
70833;BME280;71099;59.528;17.886;2024-02-04T02:17:44;98519.81;;;1.98;59.73
70833;BME280;71099;59.528;17.886;2024-02-04T02:20:29;98522.09;;;2.02;59.61
70833;BME280;71099;59.528;17.886;2024-02-04T02:23:12;98518.78;;;1.91;59.18
70833;BME280;71099;59.528;17.886;2024-02-04T02:25:39;98512.19;;;1.98;59.66
70833;BME280;71099;59.528;17.886;2024-02-04T02:28:07;98515.53;;;1.99;59.90
70833;BME280;71099;59.528;17.886;2024-02-04T02:30:32;98506.50;;;1.87;59.34
70833;BME280;71099;59.528;17.886;2024-02-04T02:32:58;98526.84;;;1.87;59.50
70833;BME280;71099;59.528;17.886;2024-02-04T02:35:23;98523.22;;;1.89;59.51
70833;BME280;71099;59.528;17.886;2024-02-04T02:40:47;98519.78;;;1.81;59.06
70833;BME280;71099;59.528;17.886;2024-02-04T02:43:16;98528.19;;;1.81;58.89
70833;BME280;71099;59.528;17.886;2024-02-04T02:45:42;98512.13;;;1.81;58.29
70833;BME280;71099;59.528;17.886;2024-02-04T02:48:10;98513.63;;;1.83;58.33
70833;BME280;71099;59.528;17.886;2024-02-04T02:50:36;98524.03;;;1.80;58.53
70833;BME280;71099;59.528;17.886;2024-02-04T02:53:01;98521.00;;;1.77;58.17
70833;BME280;71099;59.528;17.886;2024-02-04T02:55:27;98529.41;;;1.77;56.68
70833;BME280;71099;59.528;17.886;2024-02-04T02:57:52;98518.97;;;1.80;56.79
70833;BME280;71099;59.528;17.886;2024-02-04T03:00:18;98525.78;;;1.80;57.49
70833;BME280;71099;59.528;17.886;2024-02-04T03:02:43;98522.72;;;1.76;56.80
70833;BME280;71099;59.528;17.886;2024-02-04T03:05:09;98528.47;;;1.78;57.35
70833;BME280;71099;59.528;17.886;2024-02-04T03:07:35;98533.84;;;1.75;57.26
70833;BME280;71099;59.528;17.886;2024-02-04T03:10:00;98532.91;;;1.76;57.20
70833;BME280;71099;59.528;17.886;2024-02-04T03:12:26;98527.44;;;1.71;57.86
70833;BME280;71099;59.528;17.886;2024-02-04T03:14:51;98541.31;;;1.77;57.13
70833;BME280;71099;59.528;17.886;2024-02-04T03:17:16;98534.56;;;1.68;57.33
70833;BME280;71099;59.528;17.886;2024-02-04T03:19:46;98540.53;;;1.76;58.63
70833;BME280;71099;59.528;17.886;2024-02-04T03:22:13;98538.94;;;1.75;58.23
70833;BME280;71099;59.528;17.886;2024-02-04T03:24:38;98536.25;;;1.77;58.55
70833;BME280;71099;59.528;17.886;2024-02-04T03:27:03;98543.00;;;1.68;58.09
70833;BME280;71099;59.528;17.886;2024-02-04T03:29:29;98545.94;;;1.64;57.91
70833;BME280;71099;59.528;17.886;2024-02-04T03:31:55;98551.25;;;1.70;58.82
70833;BME280;71099;59.528;17.886;2024-02-04T03:34:21;98543.00;;;1.68;58.06
70833;BME280;71099;59.528;17.886;2024-02-04T03:36:46;98541.38;;;1.67;58.37
70833;BME280;71099;59.528;17.886;2024-02-04T03:39:12;98534.72;;;1.57;57.92
70833;BME280;71099;59.528;17.886;2024-02-04T03:41:37;98560.13;;;1.57;57.78
70833;BME280;71099;59.528;17.886;2024-02-04T03:44:04;98540.34;;;1.51;56.76
70833;BME280;71099;59.528;17.886;2024-02-04T03:46:29;98541.03;;;1.53;57.16
70833;BME280;71099;59.528;17.886;2024-02-04T03:48:55;98547.56;;;1.55;57.52
70833;BME280;71099;59.528;17.886;2024-02-04T03:51:20;98544.72;;;1.58;57.63
70833;BME280;71099;59.528;17.886;2024-02-04T03:53:47;98551.06;;;1.44;56.24
70833;BME280;71099;59.528;17.886;2024-02-04T03:56:12;98551.88;;;1.45;56.95
70833;BME280;71099;59.528;17.886;2024-02-04T03:58:38;98553.47;;;1.46;56.88
70833;BME280;71099;59.528;17.886;2024-02-04T04:01:03;98562.31;;;1.42;55.48
70833;BME280;71099;59.528;17.886;2024-02-04T04:03:29;98565.09;;;1.48;56.54
70833;BME280;71099;59.528;17.886;2024-02-04T04:05:54;98557.88;;;1.44;55.77
70833;BME280;71099;59.528;17.886;2024-02-04T04:08:20;98556.47;;;1.32;56.16
70833;BME280;71099;59.528;17.886;2024-02-04T04:10:45;98559.94;;;1.31;55.75
70833;BME280;71099;59.528;17.886;2024-02-04T04:13:12;98556.19;;;1.35;56.14
70833;BME280;71099;59.528;17.886;2024-02-04T04:15:37;98554.28;;;1.37;56.92
70833;BME280;71099;59.528;17.886;2024-02-04T04:18:03;98564.09;;;1.22;55.00
70833;BME280;71099;59.528;17.886;2024-02-04T04:20:29;98553.38;;;1.19;55.71
70833;BME280;71099;59.528;17.886;2024-02-04T04:22:54;98563.44;;;1.20;55.72
70833;BME280;71099;59.528;17.886;2024-02-04T04:25:20;98563.97;;;1.24;55.40
70833;BME280;71099;59.528;17.886;2024-02-04T04:27:45;98572.09;;;1.27;55.60
70833;BME280;71099;59.528;17.886;2024-02-04T04:30:11;98572.78;;;1.20;55.66
70833;BME280;71099;59.528;17.886;2024-02-04T04:32:37;98569.03;;;1.24;56.12
70833;BME280;71099;59.528;17.886;2024-02-04T04:35:02;98567.16;;;1.26;56.02
70833;BME280;71099;59.528;17.886;2024-02-04T04:37:28;98570.91;;;1.22;56.06
70833;BME280;71099;59.528;17.886;2024-02-04T04:39:53;98580.53;;;1.18;55.48
70833;BME280;71099;59.528;17.886;2024-02-04T04:42:19;98578.78;;;1.19;56.24
70833;BME280;71099;59.528;17.886;2024-02-04T04:44:44;98578.94;;;1.27;55.71
70833;BME280;71099;59.528;17.886;2024-02-04T04:47:10;98577.31;;;1.26;55.98
70833;BME280;71099;59.528;17.886;2024-02-04T04:49:35;98590.41;;;1.21;56.05
70833;BME280;71099;59.528;17.886;2024-02-04T04:52:00;98582.94;;;1.10;56.24
70833;BME280;71099;59.528;17.886;2024-02-04T04:54:27;98585.34;;;1.21;56.82
70833;BME280;71099;59.528;17.886;2024-02-04T04:56:53;98590.72;;;1.09;54.93
70833;BME280;71099;59.528;17.886;2024-02-04T04:59:18;98578.66;;;1.11;55.77
70833;BME280;71099;59.528;17.886;2024-02-04T05:01:48;98586.44;;;1.09;55.73
70833;BME280;71099;59.528;17.886;2024-02-04T05:04:14;98576.25;;;0.99;55.50
70833;BME280;71099;59.528;17.886;2024-02-04T05:06:40;98563.19;;;0.94;55.85
70833;BME280;71099;59.528;17.886;2024-02-04T05:09:05;98561.28;;;0.96;55.50
70833;BME280;71099;59.528;17.886;2024-02-04T05:11:31;98559.16;;;1.02;56.04
70833;BME280;71099;59.528;17.886;2024-02-04T05:13:56;98552.75;;;0.97;56.41
70833;BME280;71099;59.528;17.886;2024-02-04T05:16:22;98555.16;;;0.89;56.32
70833;BME280;71099;59.528;17.886;2024-02-04T05:18:47;98562.38;;;0.84;55.68
70833;BME280;71099;59.528;17.886;2024-02-04T05:21:12;98567.47;;;0.84;55.31
70833;BME280;71099;59.528;17.886;2024-02-04T05:23:38;98576.28;;;0.80;55.69
70833;BME280;71099;59.528;17.886;2024-02-04T05:26:04;98572.53;;;0.84;55.75
70833;BME280;71099;59.528;17.886;2024-02-04T05:28:30;98568.91;;;0.77;54.50
70833;BME280;71099;59.528;17.886;2024-02-04T05:30:55;98554.63;;;0.76;55.25
70833;BME280;71099;59.528;17.886;2024-02-04T05:33:21;98556.22;;;0.77;56.27
70833;BME280;71099;59.528;17.886;2024-02-04T05:35:48;98555.28;;;0.78;55.04
70833;BME280;71099;59.528;17.886;2024-02-04T05:38:16;98572.13;;;0.79;54.75
70833;BME280;71099;59.528;17.886;2024-02-04T05:40:41;98562.63;;;0.72;55.31
70833;BME280;71099;59.528;17.886;2024-02-04T05:43:07;98566.13;;;0.80;55.25
70833;BME280;71099;59.528;17.886;2024-02-04T05:45:35;98566.91;;;0.81;55.90
70833;BME280;71099;59.528;17.886;2024-02-04T05:48:01;98579.19;;;0.85;56.03
70833;BME280;71099;59.528;17.886;2024-02-04T05:50:26;98578.41;;;0.85;55.37
70833;BME280;71099;59.528;17.886;2024-02-04T05:52:51;98570.91;;;0.74;54.83
70833;BME280;71099;59.528;17.886;2024-02-04T05:55:17;98577.75;;;0.73;54.99
70833;BME280;71099;59.528;17.886;2024-02-04T05:57:42;98578.25;;;0.67;55.44
70833;BME280;71099;59.528;17.886;2024-02-04T06:00:09;98578.41;;;0.66;54.22
70833;BME280;71099;59.528;17.886;2024-02-04T06:02:36;98577.31;;;0.68;55.62
70833;BME280;71099;59.528;17.886;2024-02-04T06:05:02;98582.41;;;0.68;54.03
70833;BME280;71099;59.528;17.886;2024-02-04T06:07:27;98589.38;;;0.76;54.69
70833;BME280;71099;59.528;17.886;2024-02-04T06:09:54;98595.50;;;0.73;54.76
70833;BME280;71099;59.528;17.886;2024-02-04T06:12:21;98590.44;;;0.73;54.61
70833;BME280;71099;59.528;17.886;2024-02-04T06:14:47;98582.81;;;0.73;54.67
70833;BME280;71099;59.528;17.886;2024-02-04T06:17:12;98581.31;;;0.71;54.55
70833;BME280;71099;59.528;17.886;2024-02-04T06:19:38;98586.03;;;0.66;54.88
70833;BME280;71099;59.528;17.886;2024-02-04T06:22:03;98588.28;;;0.69;55.90
70833;BME280;71099;59.528;17.886;2024-02-04T06:24:29;98578.91;;;0.60;54.71
70833;BME280;71099;59.528;17.886;2024-02-04T06:26:54;98588.03;;;0.62;55.49
70833;BME280;71099;59.528;17.886;2024-02-04T06:29:20;98588.03;;;0.62;55.18
70833;BME280;71099;59.528;17.886;2024-02-04T06:31:46;98591.22;;;0.64;55.54
70833;BME280;71099;59.528;17.886;2024-02-04T06:34:12;98592.28;;;0.62;55.17
70833;BME280;71099;59.528;17.886;2024-02-04T06:36:37;98595.34;;;0.56;55.09
70833;BME280;71099;59.528;17.886;2024-02-04T06:39:03;98586.69;;;0.58;55.53
70833;BME280;71099;59.528;17.886;2024-02-04T06:41:28;98586.13;;;0.55;55.01
70833;BME280;71099;59.528;17.886;2024-02-04T06:43:54;98587.72;;;0.56;55.48
70833;BME280;71099;59.528;17.886;2024-02-04T06:46:26;98587.72;;;0.56;55.52
70833;BME280;71099;59.528;17.886;2024-02-04T06:48:52;98595.75;;;0.51;54.86
70833;BME280;71099;59.528;17.886;2024-02-04T06:51:18;98596.41;;;0.53;55.76
70833;BME280;71099;59.528;17.886;2024-02-04T06:53:43;98593.31;;;0.49;55.13
70833;BME280;71099;59.528;17.886;2024-02-04T06:56:10;98604.81;;;0.54;55.59
70833;BME280;71099;59.528;17.886;2024-02-04T06:58:39;98598.41;;;0.59;55.72
70833;BME280;71099;59.528;17.886;2024-02-04T07:01:05;98597.88;;;0.56;55.66
70833;BME280;71099;59.528;17.886;2024-02-04T07:03:31;98607.47;;;0.52;56.16
70833;BME280;71099;59.528;17.886;2024-02-04T07:05:58;98608.28;;;0.53;56.54
70833;BME280;71099;59.528;17.886;2024-02-04T07:08:23;98602.81;;;0.47;55.60
70833;BME280;71099;59.528;17.886;2024-02-04T07:10:49;98602.41;;;0.52;55.53
70833;BME280;71099;59.528;17.886;2024-02-04T07:13:14;98596.78;;;0.48;56.52
70833;BME280;71099;59.528;17.886;2024-02-04T07:15:40;98591.22;;;0.55;56.90
70833;BME280;71099;59.528;17.886;2024-02-04T07:18:05;98595.22;;;0.47;56.24
70833;BME280;71099;59.528;17.886;2024-02-04T07:20:31;98600.13;;;0.49;56.11
70833;BME280;71099;59.528;17.886;2024-02-04T07:22:56;98597.88;;;0.46;55.92
70833;BME280;71099;59.528;17.886;2024-02-04T07:25:22;98592.78;;;0.46;56.52
70833;BME280;71099;59.528;17.886;2024-02-04T07:27:48;98593.44;;;0.48;57.48
70833;BME280;71099;59.528;17.886;2024-02-04T07:30:13;98585.84;;;0.48;56.68
70833;BME280;71099;59.528;17.886;2024-02-04T07:32:39;98581.97;;;0.44;56.84
70833;BME280;71099;59.528;17.886;2024-02-04T07:35:04;98579.97;;;0.47;57.08
70833;BME280;71099;59.528;17.886;2024-02-04T07:37:31;98579.19;;;0.47;57.19
70833;BME280;71099;59.528;17.886;2024-02-04T07:39:56;98579.97;;;0.47;57.42
70833;BME280;71099;59.528;17.886;2024-02-04T07:42:21;98578.38;;;0.46;57.98
70833;BME280;71099;59.528;17.886;2024-02-04T07:44:47;98584.25;;;0.47;57.36
70833;BME280;71099;59.528;17.886;2024-02-04T07:47:13;98583.28;;;0.48;57.74
70833;BME280;71099;59.528;17.886;2024-02-04T07:49:38;98580.75;;;0.48;57.78
70833;BME280;71099;59.528;17.886;2024-02-04T07:52:04;98575.44;;;0.51;57.60
70833;BME280;71099;59.528;17.886;2024-02-04T07:54:30;98575.84;;;0.56;58.69
70833;BME280;71099;59.528;17.886;2024-02-04T07:56:55;98573.84;;;0.50;58.14
70833;BME280;71099;59.528;17.886;2024-02-04T07:59:21;98582.38;;;0.49;58.03
70833;BME280;71099;59.528;17.886;2024-02-04T08:01:47;98585.06;;;0.57;59.15
70833;BME280;71099;59.528;17.886;2024-02-04T08:04:12;98578.91;;;0.60;58.46
70833;BME280;71099;59.528;17.886;2024-02-04T08:06:38;98574.38;;;0.63;59.12
70833;BME280;71099;59.528;17.886;2024-02-04T08:09:03;98583.72;;;0.63;58.82
70833;BME280;71099;59.528;17.886;2024-02-04T08:11:29;98576.66;;;0.66;58.92
70833;BME280;71099;59.528;17.886;2024-02-04T08:13:55;98587.88;;;0.64;58.67
70833;BME280;71099;59.528;17.886;2024-02-04T08:16:20;98596.56;;;0.61;58.97
70833;BME280;71099;59.528;17.886;2024-02-04T08:18:46;98593.38;;;0.69;59.44
70833;BME280;71099;59.528;17.886;2024-02-04T08:21:11;98594.16;;;0.69;59.22
70833;BME280;71099;59.528;17.886;2024-02-04T08:23:37;98584.56;;;0.73;59.47
70833;BME280;71099;59.528;17.886;2024-02-04T08:26:05;98596.28;;;0.74;58.59
70833;BME280;71099;59.528;17.886;2024-02-04T08:28:30;98588.81;;;0.72;59.26
70833;BME280;71099;59.528;17.886;2024-02-04T08:30:56;98598.84;;;0.83;59.11
70833;BME280;71099;59.528;17.886;2024-02-04T08:33:21;98592.84;;;0.84;58.77
70833;BME280;71099;59.528;17.886;2024-02-04T08:35:48;98598.59;;;0.86;58.82
70833;BME280;71099;59.528;17.886;2024-02-04T08:38:13;98591.63;;;0.88;59.45
70833;BME280;71099;59.528;17.886;2024-02-04T08:40:39;98593.91;;;0.91;59.98
70833;BME280;71099;59.528;17.886;2024-02-04T08:43:04;98590.16;;;0.95;58.90
70833;BME280;71099;59.528;17.886;2024-02-04T08:45:30;98595.50;;;0.92;59.69
70833;BME280;71099;59.528;17.886;2024-02-04T08:47:55;98579.19;;;0.85;59.04
70833;BME280;71099;59.528;17.886;2024-02-04T08:50:21;98582.97;;;0.91;58.76
70833;BME280;71099;59.528;17.886;2024-02-04T08:52:46;98590.56;;;0.81;58.93
70833;BME280;71099;59.528;17.886;2024-02-04T08:55:11;98579.06;;;0.77;58.57
70833;BME280;71099;59.528;17.886;2024-02-04T08:57:37;98580.00;;;0.86;58.82
70833;BME280;71099;59.528;17.886;2024-02-04T09:00:03;98580.28;;;0.92;58.56
70833;BME280;71099;59.528;17.886;2024-02-04T09:02:28;98577.47;;;0.95;59.11
70833;BME280;71099;59.528;17.886;2024-02-04T09:04:54;98575.31;;;0.81;58.66
70833;BME280;71099;59.528;17.886;2024-02-04T09:07:19;98575.75;;;0.86;59.11
70833;BME280;71099;59.528;17.886;2024-02-04T09:09:45;98578.94;;;0.88;58.83
70833;BME280;71099;59.528;17.886;2024-02-04T09:12:10;98574.38;;;0.92;58.71
70833;BME280;71099;59.528;17.886;2024-02-04T09:14:36;98580.41;;;1.01;58.71
70833;BME280;71099;59.528;17.886;2024-02-04T09:17:03;98579.63;;;1.10;59.08
70833;BME280;71099;59.528;17.886;2024-02-04T09:19:29;98575.22;;;1.02;58.70
70833;BME280;71099;59.528;17.886;2024-02-04T09:21:56;98574.00;;;1.16;58.49
70833;BME280;71099;59.528;17.886;2024-02-04T09:24:21;98574.53;;;1.10;58.72
70833;BME280;71099;59.528;17.886;2024-02-04T09:26:47;98573.34;;;1.14;58.56
70833;BME280;71099;59.528;17.886;2024-02-04T09:29:12;98570.38;;;1.09;59.11
70833;BME280;71099;59.528;17.886;2024-02-04T09:31:37;98575.72;;;1.15;59.38
70833;BME280;71099;59.528;17.886;2024-02-04T09:34:03;98566.78;;;1.21;59.18
70833;BME280;71099;59.528;17.886;2024-02-04T09:36:29;98564.88;;;1.23;59.21
70833;BME280;71099;59.528;17.886;2024-02-04T09:38:54;98562.06;;;1.26;59.55
70833;BME280;71099;59.528;17.886;2024-02-04T09:41:21;98570.38;;;1.28;59.18
70833;BME280;71099;59.528;17.886;2024-02-04T09:43:49;98570.09;;;1.31;60.14
70833;BME280;71099;59.528;17.886;2024-02-04T09:46:16;98567.69;;;1.39;59.51
70833;BME280;71099;59.528;17.886;2024-02-04T09:48:44;98559.38;;;1.37;59.73
70833;BME280;71099;59.528;17.886;2024-02-04T09:51:10;98566.34;;;1.35;59.88
70833;BME280;71099;59.528;17.886;2024-02-04T09:53:36;98558.44;;;1.38;60.66
70833;BME280;71099;59.528;17.886;2024-02-04T09:56:06;98569.00;;;1.43;60.51
70833;BME280;71099;59.528;17.886;2024-02-04T09:58:33;98575.56;;;1.36;60.93
70833;BME280;71099;59.528;17.886;2024-02-04T10:01:03;98577.94;;;1.47;61.40
70833;BME280;71099;59.528;17.886;2024-02-04T10:03:29;98573.53;;;1.49;61.44
70833;BME280;71099;59.528;17.886;2024-02-04T10:05:56;98581.00;;;1.51;61.89
70833;BME280;71099;59.528;17.886;2024-02-04T10:08:21;98569.50;;;1.56;62.41
70833;BME280;71099;59.528;17.886;2024-02-04T10:10:47;98570.31;;;1.57;62.65
70833;BME280;71099;59.528;17.886;2024-02-04T10:13:13;98571.66;;;1.51;63.12
70833;BME280;71099;59.528;17.886;2024-02-04T10:15:38;98563.09;;;1.52;63.20
70833;BME280;71099;59.528;17.886;2024-02-04T10:18:05;98564.69;;;1.53;63.17
70833;BME280;71099;59.528;17.886;2024-02-04T10:20:31;98569.22;;;1.59;63.50
70833;BME280;71099;59.528;17.886;2024-02-04T10:22:57;98557.97;;;1.62;64.31
70833;BME280;71099;59.528;17.886;2024-02-04T10:25:23;98558.78;;;1.62;64.18
70833;BME280;71099;59.528;17.886;2024-02-04T10:27:48;98557.97;;;1.71;64.89
70833;BME280;71099;59.528;17.886;2024-02-04T10:30:14;98562.09;;;1.72;65.62
70833;BME280;71099;59.528;17.886;2024-02-04T10:32:41;98553.41;;;1.65;65.28
70833;BME280;71099;59.528;17.886;2024-02-04T10:35:07;98552.88;;;1.71;65.80
70833;BME280;71099;59.528;17.886;2024-02-04T10:37:33;98546.41;;;1.77;65.97
70833;BME280;71099;59.528;17.886;2024-02-04T10:39:58;98544.69;;;1.77;66.27
70833;BME280;71099;59.528;17.886;2024-02-04T10:42:26;98537.63;;;1.71;67.04
70833;BME280;71099;59.528;17.886;2024-02-04T10:44:53;98541.78;;;1.72;67.60
70833;BME280;71099;59.528;17.886;2024-02-04T10:47:22;98536.53;;;1.74;67.79
70833;BME280;71099;59.528;17.886;2024-02-04T10:49:52;98531.44;;;1.74;67.76
70833;BME280;71099;59.528;17.886;2024-02-04T10:52:22;98531.69;;;1.80;67.89
70833;BME280;71099;59.528;17.886;2024-02-04T10:54:49;98525.00;;;1.79;68.52
70833;BME280;71099;59.528;17.886;2024-02-04T10:57:20;98524.72;;;1.82;68.38
70833;BME280;71099;59.528;17.886;2024-02-04T10:59:47;98519.25;;;1.77;68.73
70833;BME280;71099;59.528;17.886;2024-02-04T11:02:15;98515.63;;;1.80;69.13
70833;BME280;71099;59.528;17.886;2024-02-04T11:04:41;98507.56;;;1.84;69.39
70833;BME280;71099;59.528;17.886;2024-02-04T11:07:08;98501.56;;;1.85;69.38
70833;BME280;71099;59.528;17.886;2024-02-04T11:09:36;98500.03;;;1.92;69.37
70833;BME280;71099;59.528;17.886;2024-02-04T11:12:05;98479.06;;;1.90;69.47
70833;BME280;71099;59.528;17.886;2024-02-04T11:14:33;98487.19;;;1.94;69.97
70833;BME280;71099;59.528;17.886;2024-02-04T11:17:16;98480.78;;;1.90;70.30
70833;BME280;71099;59.528;17.886;2024-02-04T11:27:55;98487.81;;;2.23;70.47
70833;BME280;71099;59.528;17.886;2024-02-04T11:30:23;98484.56;;;2.31;70.35
70833;BME280;71099;59.528;17.886;2024-02-04T11:32:48;98487.16;;;2.39;70.18
70833;BME280;71099;59.528;17.886;2024-02-04T11:35:14;98484.09;;;2.35;70.44
70833;BME280;71099;59.528;17.886;2024-02-04T11:37:39;98491.19;;;2.41;70.24
70833;BME280;71099;59.528;17.886;2024-02-04T11:40:14;98490.09;;;2.44;70.19
70833;BME280;71099;59.528;17.886;2024-02-04T11:42:41;98475.19;;;2.49;70.20
70833;BME280;71099;59.528;17.886;2024-02-04T11:45:09;98476.63;;;2.52;70.31
70833;BME280;71099;59.528;17.886;2024-02-04T11:47:37;98485.06;;;2.52;70.93
70833;BME280;71099;59.528;17.886;2024-02-04T11:50:03;98471.84;;;2.49;70.56
70833;BME280;71099;59.528;17.886;2024-02-04T11:52:29;98466.66;;;2.58;70.66
70833;BME280;71099;59.528;17.886;2024-02-04T11:54:55;98468.03;;;2.70;69.81
70833;BME280;71099;59.528;17.886;2024-02-04T11:57:21;98457.78;;;2.62;70.03
70833;BME280;71099;59.528;17.886;2024-02-04T11:59:47;98463.81;;;2.61;70.51
70833;BME280;71099;59.528;17.886;2024-02-04T12:02:15;98468.31;;;2.50;70.88
70833;BME280;71099;59.528;17.886;2024-02-04T12:04:41;98465.94;;;2.48;71.36
70833;BME280;71099;59.528;17.886;2024-02-04T12:07:08;98477.72;;;2.49;70.43
70833;BME280;71099;59.528;17.886;2024-02-04T12:09:35;98471.03;;;2.48;70.92
70833;BME280;71099;59.528;17.886;2024-02-04T12:12:01;98469.63;;;2.54;71.08
70833;BME280;71099;59.528;17.886;2024-02-04T12:14:28;98460.31;;;2.62;70.72
70833;BME280;71099;59.528;17.886;2024-02-04T12:16:55;98463.56;;;2.72;70.49
70833;BME280;71099;59.528;17.886;2024-02-04T12:19:22;98464.75;;;2.78;70.33
70833;BME280;71099;59.528;17.886;2024-02-04T12:21:48;98455.41;;;2.86;70.62
70833;BME280;71099;59.528;17.886;2024-02-04T12:24:14;98459.25;;;2.90;69.67
70833;BME280;71099;59.528;17.886;2024-02-04T12:26:39;98459.22;;;2.82;69.86
70833;BME280;71099;59.528;17.886;2024-02-04T12:29:06;98461.66;;;2.92;69.63
70833;BME280;71099;59.528;17.886;2024-02-04T12:31:31;98454.53;;;2.95;69.42
70833;BME280;71099;59.528;17.886;2024-02-04T12:33:59;98446.28;;;3.02;69.30
70833;BME280;71099;59.528;17.886;2024-02-04T12:36:32;98439.94;;;3.06;68.85
70833;BME280;71099;59.528;17.886;2024-02-04T12:39:00;98437.00;;;2.92;68.43
70833;BME280;71099;59.528;17.886;2024-02-04T12:41:26;98431.59;;;2.95;68.53
70833;BME280;71099;59.528;17.886;2024-02-04T12:43:54;98439.72;;;2.99;68.08
70833;BME280;71099;59.528;17.886;2024-02-04T12:46:22;98448.13;;;2.91;68.63
70833;BME280;71099;59.528;17.886;2024-02-04T12:48:55;98430.91;;;2.85;68.78
70833;BME280;71099;59.528;17.886;2024-02-04T12:51:28;98428.69;;;2.90;68.79
70833;BME280;71099;59.528;17.886;2024-02-04T12:56:51;98436.88;;;2.76;68.47
70833;BME280;71099;59.528;17.886;2024-02-04T12:59:30;98440.13;;;2.86;68.59
70833;BME280;71099;59.528;17.886;2024-02-04T13:02:00;98429.94;;;2.86;68.27
70833;BME280;71099;59.528;17.886;2024-02-04T13:04:26;98440.78;;;2.88;68.34
70833;BME280;71099;59.528;17.886;2024-02-04T13:06:52;98437.78;;;2.93;68.37
70833;BME280;71099;59.528;17.886;2024-02-04T13:09:18;98441.34;;;3.00;68.27